Colorado AWOS List, Phone Numbers, Maps

USA |  
| Search AWOS

Rocky Mountain States: Montana | Wyoming | Colorado | New Mexico

Complete weather reports: Colorado

Legend: KFNL = METAR available Follow your local AWOS on AV Mobile = METAR available on AV Mobile
Station Colorado Location Frequency Phone
KAKOFAA ID AKO, ASOS, KAKO 252253Z AUTO 35013KT 10SM FEW100 14/08 A2990 RMK AO2 SLP103 T01440078 $ Follow KAKO on AV Mobile COLORADO PLAINS REGIONAL 135.475 970-345-2320
KALSFAA ID ALS, ASOS, KALS 252252Z AUTO 27012KT 10SM SCT100 16/M01 A3001 Follow KALS on AV Mobile SAN LUIS VALLEY REGIONAL 135.175 719-589-5669
KASEFAA ID ASE, ASOS, KASE 252253Z 22009KT 10SM -RA FEW037 BKN050 BKN065 08/04 A3006 Follow KASE on AV Mobile ASPEN-PITKIN COUNTY AIRPORT 120.400 970-925-9168
KBKFFAA ID BKF, KBKF 252158Z 09011KT 10SM SCT060 BKN110 BKN220 19/04 A2992 Follow KBKF on AV Mobile Aurora, Buckley Air Force Base Airport
K7BMFAA ID 7BM, AWOS-3, K7BM 252314Z AUTO 29007KT 260V340 10SM VCTS BKN060 BKN075 13/M01 A3009 RMK AO2 LTG DSNT ALQS Follow K7BM on AV Mobile Cottonwood Pass 132.050 303-512-4919
KBDUFAA ID BDU, AWOS-3, KBDU 252318Z AUTO 01008G16KT 10SM VCTSRA SCT035 BKN055 OVC065 15/07 A2994 RMK AO2 LTG DSNT ALQS Follow KBDU on AV Mobile Boulder Municipal Airport 118.825 303-541-9540
KAEJFAA ID AEJ, AWOS-3, KAEJ 252315Z AUTO 00000KT 10SM SCT080 BKN090 14/M01 A3000 RMK AO2 LTG DSNT N AND S T01371007 Follow KAEJ on AV Mobile Central Colorado Regional Airport 132.925 719-395-2599
KITRFAA ID ITR, ASOS, KITR 252253Z AUTO 31007G16KT 10SM FEW050 19/06 A2988 RMK AO2 SLP087 T01940061 Follow KITR on AV Mobile Kit Carson County Airport 135.225 719-346-7036
K1V6FAA ID 1V6, AWOS-3, K1V6 252310Z AUTO 10011G15KT 10SM VCTS OVC110 15/08 A2994 RMK AO2 LTG DSNT ALQS Follow K1V6 on AV Mobile CANON CITY 120.025
KAFFFAA ID AFF, KAFF 252258Z AUTO 12013KT 100V160 10SM SCT050 14/04 A2997 RMK AO2 LTG DSNT SE TSB2159E13 SLP101 T01400043 Follow KAFF on AV Mobile Air Force Academy
KCOSFAA ID COS, ASOS, KCOS 252308Z 08010KT 8SM -RA BKN034 BKN046CB BKN055 11/08 A2998 Follow KCOS on AV Mobile COLORADO SPRINGS MUNI 125.000 719-637-9696
KFLYFAA ID FLY, AWOS-3PT, KFLY 252314Z AUTO 14013KT 10SM SCT034 BKN042 OVC085 12/04 A3001 RMK AO2 LTG DSNT S THRU NW T01170044 Follow KFLY on AV Mobile Meadowlake Airport, Peyton, CO 118.450 719-683-5371
KCCUFAA ID CCU, AWOS-3, KCCU 252315Z AUTO 27009G14KT 2SM HZ OVC002 02/M01 A3021 RMK AO2 VIS 3/4V5 P0004 LTG DSNT ALQS Follow KCCU on AV Mobile Copper Mountain, Red Cliff Pass 118.075 970-968-1715
KCEZFAA ID CEZ, ASOS, KCEZ 252253Z AUTO 09010KT 10SM FEW029 12/08 A3004 RMK AO2 RAB21E34 SLP132 P0000 T01220078 Follow KCEZ on AV Mobile CORTEZ MONTEZUMA COUNTY AIRPORT 135.625 970-564-0193
KCAGFAA ID CAG, ASOS, KCAG 252253Z AUTO 00000KT 10SM BKN045 BKN090 16/05 A2999 Follow KCAG on AV Mobile CRAIG MOFFAT AIRPORT 135.425 970-824-2373
KAJZFAA ID AJZ, AWOS-3, KAJZ 252315Z AUTO 7SM VCTS SCT060 SCT070 20/06 A2996 RMK AO2 LTG DSNT N THRU S T01950056 Follow KAJZ on AV Mobile Blake Field Airport 134.000 970-874-3251
KDNRICAO ID KDNR Denver / Stapleton International, Co.
KAPAFAA ID APA, ASOS, KAPA 252253Z 08007KT 10SM TS SCT060CB BKN100 BKN220 17/03 A2992 RMK AO2 SLP100 TSB23 OCNL LTGCG N TS N MOV E T01670028 $ Follow KAPA on AV Mobile DENVER CENTENNIAL AIRPORT 120.300 303-706-9098
KDENFAA ID DEN, ASOS, KDEN 252253Z 07015G23KT 10SM FEW050 SCT075 BKN110 BKN200 17/07 A2991 Follow KDEN on AV Mobile DENVER INTERNATIONAL AIRPORT 125.600 303-342-0838
KFTGFAA ID FTG, AWOS-3, KFTG 251135Z AUTO 23003KT 10SM SCT100 06/04 A2989 RMK AO2 Follow KFTG on AV Mobile Front Range Airport 119.025 303-261-9104
KBJCFAA ID BJC, AWOS-3, KBJC 252245Z 04010KT 35SM VCSH SCT030 BKN050 OVC100 17/05 A2993 Follow KBJC on AV Mobile Rocky Mountain Metro Airport 126.250 720-887-8067
K4V5ICAO ID K4V5 Durango Aviation Weather Reporting Station
KDROFAA ID DRO, ASOS, KDRO 252319Z AUTO 30012KT 10SM -RA SCT041 BKN065 11/06 A3005 RMK AO2 LTG DSNT SE-SW RAE00B07 P0000 T01110056 Follow KDRO on AV Mobile DURANGO-LA PLATA COUNTY AIRPORT 120.625 970-259-3579
KEGEFAA ID EGE, AWOS-3, KEGE 252250Z VRB06KT 10SM -RA BKN070 11/08 A3004 Follow KEGE on AV Mobile Eagle County Regional 135.575 970-524-7386
CO90FAA ID CO90, ASOS, KTEX 070640Z AUTO 15005KT 10SM CLR 02/M16 A3038 RMK AO2 T00201164 Follow  on AV Mobile USAF Academy Bullseye Aux Airstrip 118.325 719-683-3346
K0COFAA ID 0CO, AWOS-3, K0CO 252315Z AUTO 29012G21KT 10SM TS SCT019 BKN025 BKN030 M02/M06 A3023 RMK AO2 LTG DSNT ALQS Follow K0CO on AV Mobile EMPIRE 134.325
KEIKFAA ID EIK, AWOS-3, KEIK 252314Z AUTO 05014G20KT 10SM VCTS BKN075 BKN090 BKN120 16/07 A2992 RMK AO2 LTG DSNT S AND W T01580066 Follow KEIK on AV Mobile Erie Municipal Airport 133.825 303-604-4339
KFCSFAA ID FCS, KFCS 252220Z AUTO 22014KT 6SM TSRA FEW002 BKN038 OVC060 12/09 A2994 RMK AO2 WSHFT 14 LTG DSNT E Follow KFCS on AV Mobile Fort Carson
KFCLICAO ID KFCL Fort Collins Supplementary Aviation Weather Reporting Station
KFNLFAA ID FNL, AWOS-3, KFNL 252315Z AUTO 10006KT 10SM SCT060 12/09 A2995 RMK AO1 LTG DSNT SW TSE10 P0001 Follow KFNL on AV Mobile Fort Collins/Loveland, Fort Collins-Loveland Municipal Airport 135.075 970-669-9187
KFMMFAA ID FMM, AWOS-3, KFMM 252315Z AUTO 36009KT 10SM SCT060 SCT085 SCT110 16/07 A2992 RMK AO2 LTG DSNT N AND W T01600066 Follow KFMM on AV Mobile Fort Morgan Municipal Airport 132.950 970-867-4823
KGNBFAA ID GNB, AWOS-1 Granby-Grand County Airport 119.925 970-887-1803
KGJTFAA ID GJT, ASOS, KGJT 252253Z 30010G16KT 10SM SCT070 19/06 A2994 Follow KGJT on AV Mobile GRAND JUNCTION WALKER FIELD 118.550 970-245-7881
KGXYFAA ID GXY, AWOS-3, KGXY 252315Z 00000KT 10SM FEW033 BKN065 13/08 A2994 RMK AO1 Follow KGXY on AV Mobile Greeley, Greeley-Weld County Airport 135.175 970-352-3511
K2V9ICAO ID K2V9 Gunnison Aviation Weather Reporting Station
KGUCFAA ID GUC, AWOS-3, KGUC 252315Z AUTO 22008KT 150V230 10SM OVC049 13/02 A3006 RMK AO1 Follow KGUC on AV Mobile Gunnison, Gunnison-Crested Butte Regional Airport 135.075 970-641-3240
KHDNFAA ID HDN, AWOS-3, KHDN 252315Z AUTO 29005KT 10SM FEW044 BKN085 13/03 A3001 RMK AO1 Follow KHDN on AV Mobile Hayden, Yampa Valley Airport 119.275 970-276-3690
KHEQFAA ID HEQ, AWOS-3, KHEQ 142115Z AUTO 00000KT 10SM CLR 26/07 A2992 RMK AO2 Follow KHEQ on AV Mobile Holyoke Airport 119.275 970-854-3679
K20VFAA ID 20V, AWOS-3, K20V 252315Z AUTO 25009KT 10SM TS SCT040 OVC050 11/02 A3004 RMK AO2 LTG DSNT SW THRU N Follow K20V on AV Mobile Kremmling, Mc Elroy Airfield 118.425 970-724-9659
KLHXFAA ID LHX, ASOS, KLHX 252253Z AUTO 06009KT 10SM CLR 20/09 A2987 RMK AO2 SLP079 T02000094 Follow KLHX on AV Mobile LA JUNTA MUNICIPAL AIRPORT 135.525 719-384-5961
KVTPFAA ID VTP, AWOS-3, KVTP 252314Z AUTO 10SM VCTS SCT025 BKN050 OVC060 A3010 RMK AO2 LTG DSNT SW THRU NE Follow KVTP on AV Mobile La Veta Mountain, La Veta Pass 119.925 719-587-3120
KLAAFAA ID LAA, ASOS, KLAA 252253Z AUTO 04004KT 10SM CLR 22/09 A2983 RMK AO2 SLP075 T02170089 TSNO Follow KLAA on AV Mobile LAMAR MUNICIPAL AIRPORT 135.625 719-336-3854
KLXVFAA ID LXV, ASOS, KLXV 252306Z AUTO 01015KT 10SM BKN047 BKN060 07/M01 A3010 Follow KLXV on AV Mobile LEADVILLE LAKE CO 118.375 719-486-2735
KLICFAA ID LIC, ASOS, KLIC 252255Z AUTO 00000KT 10SM CLR 16/03 A2992 RMK AO2 LTG DSNT SW SLP093 T01610033 Follow KLIC on AV Mobile LIMON MUNICIPAL AIRPORT 121.125 719-775-0515
KLMOFAA ID LMO, AWOS-3, KLMO 252315Z AUTO 01015G21KT 10SM -RA BKN043 OVC050 15/08 A2996 RMK AO2 T01450081 Follow KLMO on AV Mobile Vance Brand Airport 120.000 303-684-7545
KEEOFAA ID EEO, ASOS, KEEO 252253Z AUTO 21010KT 10SM BKN090 16/06 A2999 RMK AO2 SLP105 T01610056 Follow KEEO on AV Mobile MEEKER AIRPORT 135.525 970-878-5036
KMYPFAA ID MYP, AWOS-3, KMYP 252307Z AUTO 27024KT VCTS 00/00 A3029 RMK AO2 LTG DSNT N S AND NW Follow KMYP on AV Mobile Salida Mountain, Monarch Pass 124.175 719-539-4436
KMTJFAA ID MTJ, ASOS, KMTJ 252253Z AUTO 16005KT 10SM CLR 17/04 A3001 RMK AO2 LTG DSNT N SLP112 T01720044 Follow KMTJ on AV Mobile MONTROSE REGIONAL AIRPORT 135.225 970-249-1534
KMNHFAA ID MNH, AWOS-3, KMNH 211903Z AUTO BKN010 BKN120 07/03 A3020 RMK AO2 PWINO Follow KMNH on AV Mobile Elbert Mountain, Monument Pass 134.375 303-648-3479
K3MWFAA ID 3MW, AWOS-3, K3MW 211630Z AUTO RMK AO2 TSNO PWINO Follow K3MW on AV Mobile Mount Werner 127.125 970-871-5640
KCRVICAO ID KCRV Nederland Mountain, Corona Pass
KAIBFAA ID AIB, AWOS-3, KAIB 252315Z AUTO 21007KT 10SM VCTS SCT065 BKN085 BKN100 14/05 A3005 RMK AO2 LTG DSNT N SE AND S Follow KAIB on AV Mobile Hopkins Field Airport 132.525 970-864-2325
KPSOFAA ID PSO, AWOS-3, KPSO 252315Z AUTO 00000KT 10SM TS SCT032 SCT070 SCT080 12/04 A3008 RMK AO2 LTG DSNT SE THRU NW T01150040 Follow KPSO on AV Mobile Stevens Field Airport 127.175 970-731-0365
KPEFICAO ID KPEF Peterson Air Force Base
KPUXICAO ID KPUX Pueblo NEXRAD
KPUBFAA ID PUB, ASOS, KPUB 252253Z AUTO 16009KT 10SM -RA OVC085 17/07 A2990 Follow KPUB on AV Mobile PUEBLO MEMORIAL AIRPORT 125.250 719-948-2803
K1V1ICAO ID K1V1 Rifle Aviation Weather Reporting Station
KRILFAA ID RIL, ASOS, KRIL 252253Z AUTO VRB03KT 10SM CLR 17/05 A2997 RMK AO2 LTG DSNT W SLP111 T01670050 Follow KRIL on AV Mobile RIFLE GARFIELD COUNTY RGNL 135.275 970-625-2206
K04VFAA ID 04V, AWOS-3, K04V 252310Z AUTO 22011G16KT 10SM VCTS SCT060 BKN080 OVC120 15/02 A3001 RMK AO2 LTG DSNT ALQS Follow K04V on AV Mobile Saguache, Saguache Municipal Airport 118.625 719-655-2229
KS29ICAO ID KS29 Salida
KANKFAA ID ANK, AWOS-3, KANK 252315Z AUTO 00000KT 10SM SCT100 15/00 A3006 RMK AO1 T01540003 Follow KANK on AV Mobile Harriet Alexander Field Airport 133.850 719-539-5268
KSPDICAO ID KSPD, KSPD 252256Z AUTO 29005KT 22/04 A2986 RMK AO1 SLP073 T02170044 Follow KSPD on AV Mobile SPRINGFIELD COMANCHE NATL
KSBSFAA ID SBS, AWOS-3, KSBS 252315Z AUTO 19006KT 10SM SCT046 BKN060 BKN070 13/04 A3002 RMK AO1 T01340036 Follow KSBS on AV Mobile Steamboat Springs 118.325 970-879-7794
KSTKFAA ID STK, AWOS-3, KSTK 252310Z AUTO 36012G18KT 10SM SCT033 16/09 A2988 RMK AO2 LTG DSNT SW THRU N Follow KSTK on AV Mobile Sterling Municipal Airport 118.525 970-526-3009
K5SMFAA ID 5SM, AWOS-3, K5SM 252313Z AUTO 00000KT 10SM VCTS BKN003 BKN008 OVC039 04/03 A3021 RMK AO2 LTG DSNT ALQS Follow K5SM on AV Mobile Sunlight 126.075 970-384-3380
KTEXFAA ID TEX, AWOS-3, KTEX 252315Z AUTO 14003KT 10SM TS SCT046 BKN055 BKN110 07/04 A3016 RMK AO2 LTG DSNT N SE AND S T00710042 Follow KTEX on AV Mobile Telluride, Telluride Regional Airport 118.325 970-728-1534
KTADFAA ID TAD, ASOS, KTAD 252254Z AUTO 14011KT 10SM CLR 14/07 A2995 RMK AO2 SLP108 T01390072 Follow KTAD on AV Mobile Trinidad, Perry Stokes Airport 119.025 719-845-1156
K33VFAA ID 33V, AWOS-3, K33V 252315Z AUTO 03006KT 10SM SCT035 BKN044 OVC060 08/01 A3006 RMK AO2 Follow K33V on AV Mobile WALDEN 118.625 970-723-4513
4V1FAA ID 4V1, AWOS-3, KTEX 070640Z AUTO 15005KT 10SM CLR 02/M16 A3038 RMK AO2 T00201164 Follow  on AV Mobile Spanish Peaks Airfield 123.600 719-738-1053
K4BMFAA ID 4BM, AWOS-3, K4BM 252314Z AUTO 33006KT 290V040 7SM VCTSUP SCT025 BKN046 OVC060 05/M03 A3018 RMK AO2 LTG DSNT ALQS Follow K4BM on AV Mobile Wilkerson Pass 132.3 303-512-4418
KC96ICAO ID KC96 Winter Park Resort
KCPWFAA ID CPW, AWOS-3, KCPW 281834Z AUTO 00000KT RMK AO2 PWINO Follow KCPW on AV Mobile Pagosa Springs, Wolf Creek Pass 121.125 970-264-2180
K2V5FAA ID 2V5, AWOS-3, K2V5 252315Z AUTO 30012G18KT 10SM CLR 18/08 A2986 RMK AO2 LTG DSNT SW T01820079 Follow K2V5 on AV Mobile Wray Municipal Airport 118.250 970-332-5930

Click on the AV Mobile icon AV Mobile icon by any station to follow that AWOS feed on AirportView.net Mobile.

Legend: Commercial service airport with AWOS Commercial Airport AWOSNon-Commercial service airport with AWOS Non-Commercial Airport AWOS
Airport AWOS - Click symbol for weather report Fort Morgan Municipal Airport KFMM 252315Z AUTO 36009KT 10SM SCT060 SCT085 SCT110 16/07 A2992 RMK AO2 LTG DSNT N AND W T01600066 Hopkins Field Airport KAIB 252315Z AUTO 21007KT 10SM VCTS SCT065 BKN085 BKN100 14/05 A3005 RMK AO2 LTG DSNT N SE AND S Telluride, Telluride Regional Airport KTEX 252315Z AUTO 14003KT 10SM TS SCT046 BKN055 BKN110 07/04 A3016 RMK AO2 LTG DSNT N SE AND S T00710042 Greeley, Greeley-Weld County Airport KGXY 252315Z 00000KT 10SM FEW033 BKN065 13/08 A2994 RMK AO1 Front Range Airport KFTG 251135Z AUTO 23003KT 10SM SCT100 06/04 A2989 RMK AO2 Rocky Mountain Metro Airport KBJC 252245Z 04010KT 35SM VCSH SCT030 BKN050 OVC100 17/05 A2993 DENVER CENTENNIAL AIRPORT KAPA 252253Z 08007KT 10SM TS SCT060CB BKN100 BKN220 17/03 A2992 RMK AO2 SLP100 TSB23 OCNL LTGCG N TS N MOV E T01670028 $ DENVER INTERNATIONAL AIRPORT KDEN 252253Z 07015G23KT 10SM FEW050 SCT075 BKN110 BKN200 17/07 A2991 Fort Collins/Loveland, Fort Collins-Loveland Municipal Airport KFNL 252315Z AUTO 10006KT 10SM SCT060 12/09 A2995 RMK AO1 LTG DSNT SW TSE10 P0001 Boulder Municipal Airport KBDU 252318Z AUTO 01008G16KT 10SM VCTSRA SCT035 BKN055 OVC065 15/07 A2994 RMK AO2 LTG DSNT ALQS Vance Brand Airport KLMO 252315Z AUTO 01015G21KT 10SM -RA BKN043 OVC050 15/08 A2996 RMK AO2 T01450081 Sterling Municipal Airport KSTK 252310Z AUTO 36012G18KT 10SM SCT033 16/09 A2988 RMK AO2 LTG DSNT SW THRU N Holyoke Airport KHEQ 142115Z AUTO 00000KT 10SM CLR 26/07 A2992 RMK AO2 COLORADO PLAINS REGIONAL KAKO 252253Z AUTO 35013KT 10SM FEW100 14/08 A2990 RMK AO2 SLP103 T01440078 $ Kit Carson County Airport KITR 252253Z AUTO 31007G16KT 10SM FEW050 19/06 A2988 RMK AO2 SLP087 T01940061 LIMON MUNICIPAL AIRPORT KLIC 252255Z AUTO 00000KT 10SM CLR 16/03 A2992 RMK AO2 LTG DSNT SW SLP093 T01610033 COLORADO SPRINGS MUNI KCOS 252308Z 08010KT 8SM -RA BKN034 BKN046CB BKN055 11/08 A2998 LAMAR MUNICIPAL AIRPORT KLAA 252253Z AUTO 04004KT 10SM CLR 22/09 A2983 RMK AO2 SLP075 T02170089 TSNO LA JUNTA MUNICIPAL AIRPORT KLHX 252253Z AUTO 06009KT 10SM CLR 20/09 A2987 RMK AO2 SLP079 T02000094 Trinidad, Perry Stokes Airport KTAD 252254Z AUTO 14011KT 10SM CLR 14/07 A2995 RMK AO2 SLP108 T01390072 PUEBLO MEMORIAL AIRPORT KPUB 252253Z AUTO 16009KT 10SM -RA OVC085 17/07 A2990 CANON CITY 1V6 SAN LUIS VALLEY REGIONAL KALS 252252Z AUTO 27012KT 10SM SCT100 16/M01 A3001 Saguache, Saguache Municipal Airport K04V 252310Z AUTO 22011G16KT 10SM VCTS SCT060 BKN080 OVC120 15/02 A3001 RMK AO2 LTG DSNT ALQS Granby-Grand County Airport KGNB WALDEN 33V Steamboat Springs KSBS 252315Z AUTO 19006KT 10SM SCT046 BKN060 BKN070 13/04 A3002 RMK AO1 T01340036 Hayden, Yampa Valley Airport KHDN 252315Z AUTO 29005KT 10SM FEW044 BKN085 13/03 A3001 RMK AO1 Kremmling, Mc Elroy Airfield K20V 252315Z AUTO 25009KT 10SM TS SCT040 OVC050 11/02 A3004 RMK AO2 LTG DSNT SW THRU N LEADVILLE LAKE CO KLXV 252306Z AUTO 01015KT 10SM BKN047 BKN060 07/M01 A3010 Eagle County Regional KEGE 252250Z VRB06KT 10SM -RA BKN070 11/08 A3004 CRAIG MOFFAT AIRPORT KCAG 252253Z AUTO 00000KT 10SM BKN045 BKN090 16/05 A2999 MEEKER AIRPORT KEEO 252253Z AUTO 21010KT 10SM BKN090 16/06 A2999 RMK AO2 SLP105 T01610056 ASPEN-PITKIN COUNTY AIRPORT KASE 252253Z 22009KT 10SM -RA FEW037 BKN050 BKN065 08/04 A3006 Gunnison, Gunnison-Crested Butte Regional Airport KGUC 252315Z AUTO 22008KT 150V230 10SM OVC049 13/02 A3006 RMK AO1 DURANGO-LA PLATA COUNTY AIRPORT  KDRO 252319Z AUTO 30012KT 10SM -RA SCT041 BKN065 11/06 A3005 RMK AO2 LTG DSNT SE-SW RAE00B07 P0000 T01110056 Stevens Field Airport KPSO 252315Z AUTO 00000KT 10SM TS SCT032 SCT070 SCT080 12/04 A3008 RMK AO2 LTG DSNT SE THRU NW T01150040 CORTEZ MONTEZUMA COUNTY AIRPORT  KCEZ 252253Z AUTO 09010KT 10SM FEW029 12/08 A3004 RMK AO2 RAB21E34 SLP132 P0000 T01220078 MONTROSE REGIONAL AIRPORT KMTJ 252253Z AUTO 16005KT 10SM CLR 17/04 A3001 RMK AO2 LTG DSNT N SLP112 T01720044 RIFLE GARFIELD COUNTY RGNL KRIL 252253Z AUTO VRB03KT 10SM CLR 17/05 A2997 RMK AO2 LTG DSNT W SLP111 T01670050 GRAND JUNCTION WALKER FIELD KGJT 252253Z 30010G16KT 10SM SCT070 19/06 A2994 Blake Field Airport KAJZ 252315Z AUTO 7SM VCTS SCT060 SCT070 20/06 A2996 RMK AO2 LTG DSNT N THRU S T01950056 Central Colorado Regional Airport KAEJ 252315Z AUTO 00000KT 10SM SCT080 BKN090 14/M01 A3000 RMK AO2 LTG DSNT N AND S T01371007 Harriet Alexander Field Airport KANK 252315Z AUTO 00000KT 10SM SCT100 15/00 A3006 RMK AO1 T01540003 Erie Municipal Airport KEIK 252314Z AUTO 05014G20KT 10SM VCTS BKN075 BKN090 BKN120 16/07 A2992 RMK AO2 LTG DSNT S AND W T01580066 Wray Municipal Airport K2V5 252315Z AUTO 30012G18KT 10SM CLR 18/08 A2986 RMK AO2 LTG DSNT SW T01820079
Legend: High Mountain AWOS Mountain Pass AWOS
Mountain Pass AWOS - Click symbol for weather report Pagosa Springs, Wolf Creek Pass KCPW 281834Z AUTO 00000KT RMK AO2 PWINO Saguache, Saguache Municipal Airport K04V 252310Z AUTO 22011G16KT 10SM VCTS SCT060 BKN080 OVC120 15/02 A3001 RMK AO2 LTG DSNT ALQS Kremmling, Mc Elroy Airfield K20V 252315Z AUTO 25009KT 10SM TS SCT040 OVC050 11/02 A3004 RMK AO2 LTG DSNT SW THRU N La Veta Mountain, La Veta Pass KVTP 252314Z AUTO 10SM VCTS SCT025 BKN050 OVC060 A3010 RMK AO2 LTG DSNT SW THRU NE Salida Mountain, Monarch Pass KMYP 252307Z AUTO 27024KT VCTS 00/00 A3029 RMK AO2 LTG DSNT N S AND NW Cottonwood Pass K7BM 252314Z AUTO 29007KT 260V340 10SM VCTS BKN060 BKN075 13/M01 A3009 RMK AO2 LTG DSNT ALQS Elbert Mountain, Monument Pass KMNH 211903Z AUTO BKN010 BKN120 07/03 A3020 RMK AO2 PWINO Wilkerson Pass K4BM 252314Z AUTO 33006KT 290V040 7SM VCTSUP SCT025 BKN046 OVC060 05/M03 A3018 RMK AO2 LTG DSNT ALQS Copper Mountain, Red Cliff Pass KCCU 252315Z AUTO 27009G14KT 2SM HZ OVC002 02/M01 A3021 RMK AO2 VIS 3/4V5 P0004 LTG DSNT ALQS EMPIRE 0CO Sunlight K5SM 252313Z AUTO 00000KT 10SM VCTS BKN003 BKN008 OVC039 04/03 A3021 RMK AO2 LTG DSNT ALQS Mount Werner K3MW 211630Z AUTO RMK AO2 TSNO PWINO
Garmin aera 796 $1999 at Avionics Specialists LLC
Bose A20 Aviation Headsets $995 at Avionics Specialists LLC